Time;durP1;ratioP1;P1;durP2;ratioP2;P2;SDS_P1;SDS_P2;PMS_P1;PMS_P2;Temp;Humidity;BMP_temperature;BMP_pressure;BME280_temperature;BME280_humidity;BME280_pressure;Samples;Min_cycle;Max_cycle;Signal;HPM_P1;HPM_P2
2023/04/18 00:02:07;;;;;;;0.30;0.20;;;;;;;12.01;100.00;94819.69;5131914;28;20478;-63
2023/04/18 00:04:36;;;;;;;0.30;0.20;;;;;;;12.05;100.00;94814.56;5132170;28;20435;-63
2023/04/18 00:07:05;;;;;;;1.37;0.83;;;;;;;12.17;100.00;94822.09;5133487;27;20434;-63
2023/04/18 00:09:33;;;;;;;0.30;0.20;;;;;;;12.41;100.00;94807.59;5136146;27;20913;-63
2023/04/18 00:12:03;;;;;;;0.30;0.30;;;;;;;12.60;100.00;94813.63;5136256;27;20552;-63
2023/04/18 00:14:33;;;;;;;0.60;0.30;;;;;;;12.64;100.00;94809.31;5136145;27;20439;-62
2023/04/18 00:17:01;;;;;;;0.50;0.30;;;;;;;12.59;100.00;94812.06;5135976;27;20441;-63
2023/04/18 00:19:33;;;;;;;0.70;0.40;;;;;;;12.72;100.00;94811.25;5135750;27;20527;-63
2023/04/18 00:22:01;;;;;;;0.40;0.20;;;;;;;12.60;100.00;94807.50;5135917;27;20466;-64
2023/04/18 00:24:30;;;;;;;0.63;0.40;;;;;;;12.32;100.00;94819.19;5135472;27;20992;-64
2023/04/18 00:26:58;;;;;;;0.43;0.43;;;;;;;11.89;100.00;94762.78;5135937;27;20435;-64
2023/04/18 00:29:27;;;;;;;0.40;0.30;;;;;;;12.34;100.00;94807.19;5135786;27;20521;-64
2023/04/18 00:31:55;;;;;;;0.30;0.20;;;;;;;12.18;100.00;94816.47;5135444;27;20485;-64
2023/04/18 00:34:23;;;;;;;0.40;0.30;;;;;;;11.94;100.00;94805.19;5136880;27;20501;-63
2023/04/18 00:36:53;;;;;;;0.40;0.30;;;;;;;11.68;100.00;94809.28;5135781;27;20467;-64
2023/04/18 00:39:21;;;;;;;0.50;0.50;;;;;;;11.65;100.00;94817.81;5122263;27;20459;-64
2023/04/18 00:41:49;;;;;;;0.40;0.30;;;;;;;11.70;100.00;94804.50;5135324;27;20498;-63
2023/04/18 00:44:18;;;;;;;0.40;0.30;;;;;;;11.90;100.00;94801.53;5135713;27;20442;-64
2023/04/18 00:46:47;;;;;;;0.50;0.40;;;;;;;11.98;100.00;94798.22;5135567;27;20458;-64
2023/04/18 00:49:15;;;;;;;0.30;0.30;;;;;;;11.76;100.00;94804.16;5135277;27;20944;-64
2023/04/18 00:51:44;;;;;;;0.60;0.40;;;;;;;11.68;100.00;94802.13;5134612;27;20462;-64
2023/04/18 00:54:15;;;;;;;0.40;0.20;;;;;;;11.67;100.00;94797.84;5135178;27;20518;-64
2023/04/18 00:56:43;;;;;;;0.50;0.50;;;;;;;11.95;100.00;94790.81;5134827;27;20974;-63
2023/04/18 00:59:13;;;;;;;0.40;0.20;;;;;;;11.57;100.00;94744.13;5135503;27;20587;-64
2023/04/18 01:01:42;;;;;;;0.87;0.87;;;;;;;11.66;100.00;94787.53;5135179;27;20473;-63
2023/04/18 01:04:10;;;;;;;0.40;0.30;;;;;;;11.62;100.00;94787.31;5135408;27;20510;-63
2023/04/18 01:06:40;;;;;;;0.50;0.30;;;;;;;11.64;100.00;94761.28;5134541;27;20431;-64
2023/04/18 01:09:09;;;;;;;0.40;0.30;;;;;;;12.06;100.00;94784.28;5134966;27;20462;-64
2023/04/18 01:11:39;;;;;;;0.30;0.27;;;;;;;12.21;100.00;94777.91;5135303;27;20799;-64
2023/04/18 01:14:08;;;;;;;0.60;0.50;;;;;;;11.96;100.00;94749.91;5134948;27;20434;-63
2023/04/18 01:16:37;;;;;;;0.40;0.37;;;;;;;11.90;100.00;94781.06;5134800;27;20435;-64
2023/04/18 01:19:06;;;;;;;0.40;0.30;;;;;;;11.70;100.00;94730.16;5134066;27;20437;-64
2023/04/18 01:21:35;;;;;;;0.40;0.30;;;;;;;12.20;100.00;94778.97;5134506;27;20427;-64
2023/04/18 01:24:10;;;;;;;0.50;0.40;;;;;;;12.02;100.00;94754.06;5134625;27;20538;-64
2023/04/18 01:26:39;;;;;;;0.43;0.43;;;;;;;12.14;100.00;94762.38;5109084;27;20468;-64
2023/04/18 01:29:08;;;;;;;0.30;0.30;;;;;;;12.24;100.00;94780.78;5134546;27;20470;-64
2023/04/18 01:31:37;;;;;;;0.40;0.30;;;;;;;12.19;100.00;94783.53;5134705;27;20435;-64
2023/04/18 01:34:06;;;;;;;0.40;0.30;;;;;;;12.03;100.00;94779.53;5134512;27;20431;-64
2023/04/18 01:36:37;;;;;;;0.40;0.30;;;;;;;12.12;100.00;94785.75;5134607;27;20467;-63
2023/04/18 01:39:06;;;;;;;0.30;0.20;;;;;;;12.19;100.00;94767.59;5134176;27;20435;-64
2023/04/18 01:41:36;;;;;;;0.30;0.20;;;;;;;12.19;100.00;94775.56;5134121;27;20435;-63
2023/04/18 01:44:05;;;;;;;0.30;0.20;;;;;;;12.14;100.00;94777.50;5134625;27;20518;-64
2023/04/18 01:46:33;;;;;;;0.50;0.40;;;;;;;12.19;100.00;94764.94;5134422;27;20959;-64
2023/04/18 01:49:01;;;;;;;0.30;0.20;;;;;;;11.85;98.78;94785.66;5134527;27;20431;-64
2023/04/18 01:51:30;;;;;;;0.50;0.40;;;;;;;11.15;100.00;94788.25;5134480;27;20434;-64
2023/04/18 01:53:58;;;;;;;0.40;0.30;;;;;;;10.60;100.00;94792.31;5134120;27;20439;-64
2023/04/18 01:56:26;;;;;;;0.60;0.57;;;;;;;10.29;100.00;94775.19;5133866;27;20435;-64
2023/04/18 01:58:56;;;;;;;0.50;0.30;;;;;;;10.36;100.00;94790.72;5133704;27;20435;-65
2023/04/18 02:01:25;;;;;;;0.30;0.30;;;;;;;10.44;100.00;94790.94;5134335;27;20513;-64
2023/04/18 02:03:53;;;;;;;0.50;0.50;;;;;;;10.40;100.00;94795.19;5133931;27;20481;-64
2023/04/18 02:06:22;;;;;;;0.40;0.30;;;;;;;10.07;100.00;94796.00;5133696;27;20935;-64
2023/04/18 02:08:50;;;;;;;1.00;0.90;;;;;;;9.75;100.00;94795.72;5134239;27;20897;-64
2023/04/18 02:11:18;;;;;;;0.43;0.43;;;;;;;9.58;100.00;94806.72;5133073;27;20431;-64
2023/04/18 02:13:46;;;;;;;0.30;0.20;;;;;;;10.04;100.00;94805.28;5133573;27;20463;-64
2023/04/18 02:16:16;;;;;;;0.40;0.30;;;;;;;10.15;100.00;94806.03;5133263;27;20449;-64
2023/04/18 02:18:45;;;;;;;0.30;0.20;;;;;;;10.09;100.00;94813.19;5133847;27;20821;-64
2023/04/18 02:21:13;;;;;;;0.40;0.30;;;;;;;10.31;100.00;94809.31;5133456;27;20431;-64
2023/04/18 02:23:41;;;;;;;0.30;0.20;;;;;;;10.41;100.00;94811.88;5133717;27;20843;-64
2023/04/18 02:26:09;;;;;;;0.30;0.20;;;;;;;10.53;100.00;94806.97;5133920;27;20435;-64
2023/04/18 02:28:38;;;;;;;0.30;0.20;;;;;;;10.80;100.00;94805.34;5133257;27;20437;-65
2023/04/18 02:31:13;;;;;;;0.30;0.20;;;;;;;10.68;100.00;94764.41;5132262;27;20525;-64
2023/04/18 02:33:44;;;;;;;0.30;0.20;;;;;;;11.21;100.00;94800.34;5133265;27;20456;-64
2023/04/18 02:36:12;;;;;;;0.30;0.20;;;;;;;11.35;100.00;94803.91;5133345;27;20427;-64
2023/04/18 02:38:41;;;;;;;0.40;0.30;;;;;;;11.13;100.00;94803.63;5133146;27;20431;-64
2023/04/18 02:41:13;;;;;;;0.30;0.20;;;;;;;11.02;100.00;94796.91;5120056;27;20438;-64
2023/04/18 02:43:42;;;;;;;0.40;0.40;;;;;;;11.17;100.00;94811.81;5132524;27;20475;-62
2023/04/18 02:46:10;;;;;;;0.60;0.30;;;;;;;11.44;100.00;94807.47;5133268;27;20431;-63
2023/04/18 02:48:39;;;;;;;0.30;0.30;;;;;;;11.59;100.00;94795.06;5133166;27;20437;-63
2023/04/18 02:51:09;;;;;;;0.40;0.30;;;;;;;11.56;100.00;94799.06;5133072;27;20495;-64
2023/04/18 02:53:37;;;;;;;0.60;0.30;;;;;;;11.55;100.00;94796.72;5118851;27;20942;-64
2023/04/18 02:56:07;;;;;;;0.30;0.20;;;;;;;11.46;100.00;94800.00;5149940;27;20430;-63
2023/04/18 02:58:35;;;;;;;0.40;0.37;;;;;;;11.50;100.00;94800.25;5134252;27;20509;-64
2023/04/18 03:01:04;;;;;;;0.50;0.30;;;;;;;11.49;100.00;94796.78;5133590;27;20433;-64
2023/04/18 03:03:32;;;;;;;0.33;0.30;;;;;;;11.42;100.00;94785.75;5132965;27;20502;-64
2023/04/18 03:06:00;;;;;;;0.30;0.20;;;;;;;11.36;100.00;94784.22;5133297;27;20817;-63
2023/04/18 03:08:30;;;;;;;0.30;0.20;;;;;;;11.23;100.00;94787.59;5132743;27;20510;-64
2023/04/18 03:10:58;;;;;;;0.47;0.40;;;;;;;11.17;100.00;94794.06;5132968;27;20492;-63
2023/04/18 03:13:27;;;;;;;0.40;0.40;;;;;;;11.25;100.00;94796.06;5132218;27;20942;-63
2023/04/18 03:15:55;;;;;;;0.30;0.20;;;;;;;11.16;100.00;94789.81;5132437;27;20430;-63
2023/04/18 03:18:24;;;;;;;0.30;0.20;;;;;;;11.39;100.00;94799.59;5118999;27;20463;-63
2023/04/18 03:20:52;;;;;;;0.40;0.30;;;;;;;11.38;100.00;94795.34;5132956;27;20467;-62
2023/04/18 03:23:21;;;;;;;0.43;0.43;;;;;;;11.27;100.00;94796.56;5132343;27;20493;-63
2023/04/18 03:25:51;;;;;;;0.60;0.60;;;;;;;11.26;100.00;94789.69;5131652;27;20520;-64
2023/04/18 03:28:19;;;;;;;0.30;0.20;;;;;;;10.97;100.00;94794.31;5132188;27;20439;-63
2023/04/18 03:30:47;;;;;;;0.43;0.43;;;;;;;11.15;100.00;94804.16;5132118;27;20451;-64
2023/04/18 03:33:15;;;;;;;0.40;0.30;;;;;;;11.15;100.00;94812.13;5132216;27;20474;-64
2023/04/18 03:35:44;;;;;;;0.50;0.30;;;;;;;11.21;100.00;94808.31;5132235;27;20515;-64
2023/04/18 03:38:12;;;;;;;0.40;0.40;;;;;;;11.11;100.00;94802.34;5132495;28;20822;-63
2023/04/18 03:40:43;;;;;;;0.30;0.20;;;;;;;10.97;100.00;94789.00;5118531;28;20438;-63
2023/04/18 03:43:12;;;;;;;0.37;0.27;;;;;;;10.80;100.00;94796.63;5135768;27;20525;-64
2023/04/18 03:45:42;;;;;;;0.70;0.33;;;;;;;10.00;100.00;94729.34;5136312;27;20448;-64
2023/04/18 03:48:11;;;;;;;1.53;0.30;;;;;;;10.34;100.00;94795.53;5136575;27;20481;-63
2023/04/18 03:50:40;;;;;;;0.50;0.30;;;;;;;10.38;100.00;94804.47;5136126;27;20947;-64
2023/04/18 03:53:08;;;;;;;0.33;0.27;;;;;;;10.61;100.00;94787.81;5136653;27;20931;-65
2023/04/18 03:55:36;;;;;;;0.60;0.40;;;;;;;10.91;100.00;94792.78;5136515;27;20431;-62
2023/04/18 03:58:05;;;;;;;0.40;0.37;;;;;;;10.63;100.00;94743.28;5136496;27;20477;-62
2023/04/18 04:00:35;;;;;;;0.73;0.40;;;;;;;10.98;100.00;94787.91;5136002;27;20969;-61
2023/04/18 04:03:03;;;;;;;1.07;1.07;;;;;;;10.93;100.00;94782.66;5135969;27;20431;-62
2023/04/18 04:05:32;;;;;;;3.70;0.63;;;;;;;10.49;100.00;94742.41;5136655;27;20426;-61
2023/04/18 04:08:00;;;;;;;0.77;0.77;;;;;;;10.69;100.00;94785.34;5135585;27;21003;-62
2023/04/18 04:10:28;;;;;;;5.20;0.57;;;;;;;10.69;100.00;94790.66;5136510;27;20445;-62
2023/04/18 04:12:57;;;;;;;3.70;1.33;;;;;;;10.60;100.00;94743.88;5136062;27;20434;-62
2023/04/18 04:15:28;;;;;;;1.10;0.40;;;;;;;11.17;100.00;94791.41;5136209;27;20442;-62
2023/04/18 04:17:57;;;;;;;0.60;0.60;;;;;;;10.84;100.00;94734.03;5135906;27;20943;-62
2023/04/18 04:20:26;;;;;;;0.70;0.57;;;;;;;11.46;100.00;94799.22;5135598;27;20517;-62
2023/04/18 04:22:55;;;;;;;0.50;0.30;;;;;;;11.57;100.00;94797.22;5135573;27;20427;-61
2023/04/18 04:25:27;;;;;;;0.90;0.90;;;;;;;11.61;100.00;94800.88;5134830;27;20490;-62
2023/04/18 04:27:56;;;;;;;0.30;0.30;;;;;;;11.67;100.00;94800.50;5135510;27;20466;-60
2023/04/18 04:30:25;;;;;;;0.40;0.40;;;;;;;11.71;100.00;94793.59;5135846;27;20467;-62
2023/04/18 04:32:53;;;;;;;0.40;0.33;;;;;;;11.80;100.00;94796.38;5135212;27;20442;-61
2023/04/18 04:35:23;;;;;;;0.30;0.20;;;;;;;11.98;100.00;94795.56;5135509;27;20434;-61
2023/04/18 04:37:51;;;;;;;6.87;0.40;;;;;;;11.92;100.00;94792.19;5135337;27;20435;-61
2023/04/18 04:40:21;;;;;;;13.83;1.73;;;;;;;11.65;100.00;94794.72;5135179;27;20518;-61
2023/04/18 04:42:52;;;;;;;4.47;1.90;;;;;;;11.80;100.00;94791.84;5135235;27;20439;-61
2023/04/18 04:45:22;;;;;;;0.40;0.30;;;;;;;11.95;100.00;94790.81;5135193;27;20482;-61
2023/04/18 04:47:50;;;;;;;0.53;0.30;;;;;;;11.89;100.00;94779.50;5135144;27;20470;-61
2023/04/18 04:50:19;;;;;;;0.60;0.60;;;;;;;12.14;100.00;94794.25;5135069;27;20423;-61
2023/04/18 04:52:48;;;;;;;1.10;0.40;;;;;;;12.21;100.00;94796.50;5135006;27;20489;-61
2023/04/18 04:55:17;;;;;;;0.63;0.63;;;;;;;12.02;100.00;94802.66;5134830;27;20935;-60
2023/04/18 04:57:46;;;;;;;0.40;0.33;;;;;;;11.86;100.00;94789.91;5134853;27;20431;-60
2023/04/18 05:00:19;;;;;;;0.40;0.37;;;;;;;11.83;100.00;94793.94;5134615;27;20502;-60
2023/04/18 05:02:48;;;;;;;6.10;1.20;;;;;;;10.97;100.00;94798.81;5135187;27;20437;-60
2023/04/18 05:05:16;;;;;;;0.87;0.87;;;;;;;10.97;100.00;94796.97;5134999;27;20470;-60
2023/04/18 05:07:44;;;;;;;0.40;0.40;;;;;;;11.27;100.00;94804.53;5135154;27;20439;-59
2023/04/18 05:10:14;;;;;;;0.70;0.63;;;;;;;11.25;100.00;94798.72;5135094;27;20427;-59
2023/04/18 05:12:43;;;;;;;0.50;0.50;;;;;;;11.24;100.00;94794.47;5134833;27;20435;-59
2023/04/18 05:15:12;;;;;;;0.70;0.70;;;;;;;11.29;100.00;94801.59;5134248;27;21031;-59
2023/04/18 05:17:40;;;;;;;1.53;1.23;;;;;;;11.15;100.00;94808.66;5134814;27;20474;-58
2023/04/18 05:20:10;;;;;;;11.73;1.53;;;;;;;10.88;100.00;94811.13;5135039;27;20443;-59
2023/04/18 05:22:38;;;;;;;0.40;0.33;;;;;;;10.80;100.00;94770.13;5134804;27;20449;-59
2023/04/18 05:25:07;;;;;;;0.60;0.60;;;;;;;11.12;100.00;94812.69;5134408;27;20478;-58
2023/04/18 05:27:37;;;;;;;0.50;0.50;;;;;;;10.88;100.00;94808.47;5134583;27;20805;-59
2023/04/18 05:30:06;;;;;;;3.67;0.90;;;;;;;10.80;100.00;94813.31;5134962;27;20491;-59
2023/04/18 05:32:37;;;;;;;0.40;0.30;;;;;;;10.75;100.00;94799.34;5134274;27;20483;-59
2023/04/18 05:35:06;;;;;;;0.53;0.53;;;;;;;11.07;100.00;94811.94;5134993;27;20529;-59
2023/04/18 05:37:35;;;;;;;0.50;0.37;;;;;;;11.40;100.00;94811.78;5133219;27;20477;-59
2023/04/18 05:40:05;;;;;;;0.50;0.30;;;;;;;11.22;100.00;94807.25;5134318;27;20859;-59
2023/04/18 05:42:33;;;;;;;10.43;0.60;;;;;;;11.32;100.00;94809.78;5134014;27;21033;-59
2023/04/18 05:45:03;;;;;;;0.50;0.30;;;;;;;11.30;100.00;94806.63;5134391;27;20561;-59
2023/04/18 05:47:32;;;;;;;0.37;0.30;;;;;;;11.58;100.00;94809.41;5134573;27;20477;-59
2023/04/18 05:50:00;;;;;;;1.37;0.90;;;;;;;11.33;100.00;94811.31;5134664;27;20446;-59
2023/04/18 05:52:29;;;;;;;3.43;1.27;;;;;;;11.10;100.00;94820.13;5134046;27;20957;-59
2023/04/18 05:54:57;;;;;;;5.00;1.03;;;;;;;11.17;100.00;94822.44;5134160;27;20873;-59
2023/04/18 05:57:25;;;;;;;0.80;0.80;;;;;;;10.85;100.00;94801.88;5134032;27;20430;-60
2023/04/18 05:59:54;;;;;;;0.93;0.93;;;;;;;10.75;100.00;94823.97;5134270;27;20435;-60
2023/04/18 06:02:23;;;;;;;0.60;0.60;;;;;;;10.71;100.00;94819.53;5134261;27;20435;-60
2023/04/18 06:04:52;;;;;;;0.70;0.67;;;;;;;10.86;100.00;94822.00;5133209;27;20959;-60
2023/04/18 06:07:23;;;;;;;0.43;0.43;;;;;;;10.90;100.00;94812.44;5134635;27;20503;-60
2023/04/18 06:09:52;;;;;;;0.50;0.40;;;;;;;11.34;100.00;94815.56;5133601;27;20427;-60
2023/04/18 06:12:21;;;;;;;2.43;0.47;;;;;;;11.78;100.00;94809.94;5134113;27;20481;-60
2023/04/18 06:14:50;;;;;;;1.03;0.73;;;;;;;11.77;100.00;94800.38;5133315;27;20984;-60
2023/04/18 06:17:18;;;;;;;0.40;0.30;;;;;;;11.63;100.00;94804.84;5134115;27;20533;-60
2023/04/18 06:19:48;;;;;;;0.40;0.37;;;;;;;12.02;100.00;94788.56;5133314;27;20791;-60
2023/04/18 06:22:16;;;;;;;2.63;2.53;;;;;;;11.66;100.00;94779.59;5133538;27;21018;-60
2023/04/18 06:24:44;;;;;;;1.00;1.00;;;;;;;11.56;100.00;94777.06;5132963;27;20482;-60
2023/04/18 06:27:13;;;;;;;1.43;0.53;;;;;;;11.67;100.00;94775.84;5132833;27;20597;-60
2023/04/18 06:29:57;;;;;;;0.70;0.60;;;;;;;11.91;100.00;94768.59;5111385;27;20804;-60
2023/04/18 06:32:26;;;;;;;0.63;0.60;;;;;;;12.34;100.00;94766.53;5132613;27;20440;-60
2023/04/18 06:34:56;;;;;;;0.60;0.60;;;;;;;12.84;100.00;94783.41;5133568;27;20812;-61
2023/04/18 06:37:25;;;;;;;1.20;1.07;;;;;;;12.99;100.00;94780.44;5132898;27;20833;-60
2023/04/18 06:39:53;;;;;;;0.40;0.40;;;;;;;13.12;100.00;94779.69;5133553;27;20977;-61
2023/04/18 06:42:21;;;;;;;0.80;0.80;;;;;;;12.54;100.00;94803.38;5133524;27;20462;-61
2023/04/18 06:44:50;;;;;;;0.90;0.47;;;;;;;12.14;100.00;94794.25;5133426;27;20512;-61
2023/04/18 06:47:18;;;;;;;1.13;1.13;;;;;;;11.35;100.00;94811.06;5132941;27;20926;-61
2023/04/18 06:49:47;;;;;;;1.30;1.20;;;;;;;11.12;100.00;94810.03;5133224;27;20527;-61
2023/04/18 06:52:16;;;;;;;0.93;0.93;;;;;;;11.25;100.00;94814.66;5133224;27;20492;-60
2023/04/18 06:54:45;;;;;;;0.60;0.60;;;;;;;11.34;100.00;94820.09;5133141;27;20438;-60
2023/04/18 06:57:13;;;;;;;0.87;0.77;;;;;;;11.76;100.00;94814.75;5106343;27;20450;-60
2023/04/18 06:59:41;;;;;;;0.50;0.47;;;;;;;11.76;100.00;94819.28;5132754;27;21054;-59
2023/04/18 07:02:09;;;;;;;0.80;0.40;;;;;;;12.07;100.00;94823.03;5132269;27;20466;-60
2023/04/18 07:04:38;;;;;;;0.77;0.50;;;;;;;11.65;100.00;94776.13;5132497;27;20862;-60
2023/04/18 07:07:06;;;;;;;1.37;0.97;;;;;;;11.77;100.00;94805.69;5105270;27;20478;-60
2023/04/18 07:09:36;;;;;;;0.40;0.30;;;;;;;11.94;100.00;94826.44;5132035;27;20456;-60
2023/04/18 07:12:05;;;;;;;0.40;0.30;;;;;;;12.37;100.00;94816.44;5132809;27;20442;-59
2023/04/18 07:14:33;;;;;;;0.40;0.30;;;;;;;12.58;100.00;94815.00;5131982;27;20525;-59
2023/04/18 07:17:02;;;;;;;5.67;2.10;;;;;;;12.56;100.00;94815.28;5132294;27;20431;-60
2023/04/18 07:19:30;;;;;;;0.60;0.57;;;;;;;12.04;100.00;94813.78;5132203;27;20944;-60
2023/04/18 07:21:58;;;;;;;0.80;0.80;;;;;;;12.01;100.00;94816.22;5132609;27;20441;-60
2023/04/18 07:24:26;;;;;;;0.40;0.40;;;;;;;11.85;100.00;94814.88;5132418;27;20545;-59
2023/04/18 07:26:57;;;;;;;0.40;0.40;;;;;;;11.97;100.00;94823.97;5132319;27;20562;-59
2023/04/18 07:29:25;;;;;;;0.50;0.50;;;;;;;11.82;100.00;94820.75;5132382;27;20441;-60
2023/04/18 07:31:53;;;;;;;0.97;0.97;;;;;;;11.77;100.00;94847.38;5132098;27;20517;-60
2023/04/18 07:34:22;;;;;;;0.70;0.70;;;;;;;11.43;100.00;94863.50;5132595;27;20431;-60
2023/04/18 07:36:50;;;;;;;5.80;1.60;;;;;;;11.62;100.00;94855.53;5132288;27;20877;-59
2023/04/18 07:39:18;;;;;;;0.43;0.30;;;;;;;11.65;100.00;94862.94;5131072;27;20481;-59
2023/04/18 07:41:46;;;;;;;0.50;0.40;;;;;;;11.68;100.00;94859.72;5132218;28;20461;-59
2023/04/18 07:44:17;;;;;;;1.57;0.90;;;;;;;11.76;100.00;94864.41;5131898;28;20491;-59
2023/04/18 07:46:45;;;;;;;0.60;0.40;;;;;;;11.68;100.00;94867.66;5132176;28;20470;-60
2023/04/18 07:49:14;;;;;;;0.63;0.60;;;;;;;11.77;100.00;94872.06;5132589;28;20819;-59
2023/04/18 07:51:43;;;;;;;0.77;0.70;;;;;;;11.29;100.00;94871.34;5131283;27;20437;-59
2023/04/18 07:54:11;;;;;;;1.17;0.60;;;;;;;11.12;100.00;94815.34;5111349;28;20535;-59
2023/04/18 07:56:39;;;;;;;0.60;0.60;;;;;;;11.98;100.00;94880.53;5126129;28;20446;-59
2023/04/18 07:59:08;;;;;;;2.43;0.30;;;;;;;12.46;100.00;94879.25;5132337;27;20431;-59
2023/04/18 08:01:37;;;;;;;0.50;0.40;;;;;;;12.69;100.00;94881.00;5131772;28;20805;-61
2023/04/18 08:04:06;;;;;;;0.40;0.40;;;;;;;12.66;100.00;94884.22;5131978;28;20443;-61
2023/04/18 08:06:34;;;;;;;0.30;0.20;;;;;;;12.68;100.00;94882.06;5131952;28;21032;-60
2023/04/18 08:09:04;;;;;;;0.53;0.53;;;;;;;12.84;100.00;94876.47;5132347;27;20431;-60
2023/04/18 08:11:33;;;;;;;1.90;1.70;;;;;;;12.44;100.00;94888.59;5131847;28;20492;-62
2023/04/18 08:14:02;;;;;;;2.60;1.23;;;;;;;12.30;100.00;94893.06;5131901;28;20438;-62
2023/04/18 08:16:30;;;;;;;0.97;0.97;;;;;;;12.12;100.00;94892.00;5131828;27;20427;-62
2023/04/18 08:19:00;;;;;;;0.80;0.80;;;;;;;12.44;100.00;94885.94;5131709;28;20477;-62
2023/04/18 08:21:28;;;;;;;0.50;0.50;;;;;;;12.43;100.00;94889.66;5131778;28;20900;-63
2023/04/18 08:23:57;;;;;;;0.80;0.80;;;;;;;12.54;100.00;94888.44;5131707;28;20435;-62
2023/04/18 08:26:26;;;;;;;0.60;0.60;;;;;;;12.64;100.00;94873.09;5131877;27;20466;-62
2023/04/18 08:28:54;;;;;;;0.83;0.60;;;;;;;12.75;100.00;94885.13;5134596;27;20430;-61
2023/04/18 08:31:22;;;;;;;0.80;0.40;;;;;;;12.77;100.00;94873.41;5135866;27;20449;-61
2023/04/18 08:33:51;;;;;;;0.70;0.70;;;;;;;12.63;100.00;94868.88;5135879;27;20429;-62
2023/04/18 08:36:21;;;;;;;0.40;0.40;;;;;;;12.55;100.00;94842.94;5135873;27;20491;-62
2023/04/18 08:38:49;;;;;;;0.50;0.30;;;;;;;13.22;100.00;94875.25;5135071;27;20438;-61
2023/04/18 08:41:21;;;;;;;0.40;0.30;;;;;;;12.94;100.00;94873.63;5135446;27;20958;-62
2023/04/18 08:43:49;;;;;;;0.40;0.40;;;;;;;13.31;100.00;94863.63;5135361;27;20474;-62
2023/04/18 08:46:18;;;;;;;0.30;0.20;;;;;;;13.57;100.00;94858.56;5135559;27;21040;-62
2023/04/18 08:48:50;;;;;;;0.50;0.40;;;;;;;13.36;100.00;94858.19;5135468;27;20805;-61
2023/04/18 08:51:20;;;;;;;0.37;0.27;;;;;;;13.28;100.00;94858.88;5135279;27;20438;-62
2023/04/18 08:53:49;;;;;;;0.30;0.20;;;;;;;13.12;100.00;94859.50;5135721;27;20493;-62
2023/04/18 08:56:21;;;;;;;0.47;0.33;;;;;;;12.90;100.00;94848.72;5135241;27;20473;-62
2023/04/18 08:58:49;;;;;;;0.70;0.70;;;;;;;13.13;100.00;94853.09;5135260;27;20837;-61
2023/04/18 09:01:18;;;;;;;0.97;0.97;;;;;;;13.20;100.00;94864.13;5135258;27;20435;-62
2023/04/18 09:03:46;;;;;;;0.40;0.30;;;;;;;13.24;100.00;94873.09;5135049;27;20430;-62
2023/04/18 09:06:17;;;;;;;0.87;0.43;;;;;;;13.15;100.00;94881.00;5135172;27;20470;-62
2023/04/18 09:08:58;;;;;;;0.40;0.40;;;;;;;13.05;100.00;94883.00;5109875;27;20854;-61
2023/04/18 09:11:27;;;;;;;1.03;1.00;;;;;;;12.65;100.00;94892.50;5134654;27;20435;-61
2023/04/18 09:13:57;;;;;;;3.17;0.70;;;;;;;12.85;100.00;94886.03;5134984;27;20439;-61
2023/04/18 09:16:28;;;;;;;0.50;0.30;;;;;;;13.00;100.00;94893.75;5134250;27;20931;-62
2023/04/18 09:19:10;;;;;;;0.80;0.80;;;;;;;12.60;100.00;94904.00;5134886;27;20447;-60
2023/04/18 09:21:40;;;;;;;0.77;0.67;;;;;;;12.31;100.00;94899.97;5134794;27;20465;-60
2023/04/18 09:24:22;;;;;;;0.40;0.40;;;;;;;11.96;100.00;94854.28;5134665;27;20994;-60
2023/04/18 09:26:53;;;;;;;0.30;0.30;;;;;;;12.54;100.00;94899.88;5112078;27;20535;-60
2023/04/18 09:29:24;;;;;;;0.70;0.60;;;;;;;12.92;100.00;94891.75;5134526;27;20445;-61
2023/04/18 09:31:58;;;;;;;1.10;1.10;;;;;;;13.11;100.00;94892.50;5134474;27;20439;-61
2023/04/18 09:34:27;;;;;;;0.60;0.60;;;;;;;13.44;100.00;94888.66;5134883;27;20430;-61
2023/04/18 09:37:09;;;;;;;0.40;0.33;;;;;;;13.49;100.00;94887.75;5134227;27;20442;-61
2023/04/18 09:39:40;;;;;;;0.40;0.30;;;;;;;13.38;100.00;94897.06;5134145;27;20431;-60
2023/04/18 09:42:09;;;;;;;0.40;0.30;;;;;;;13.10;100.00;94902.38;5133785;27;20468;-60
2023/04/18 09:44:38;;;;;;;0.30;0.30;;;;;;;12.73;100.00;94905.91;5134712;27;20436;-60
2023/04/18 09:47:07;;;;;;;0.40;0.30;;;;;;;12.91;100.00;94911.47;5134096;27;20912;-61
2023/04/18 09:49:35;;;;;;;0.50;0.50;;;;;;;13.03;100.00;94901.91;5134244;27;20442;-61
2023/04/18 09:52:07;;;;;;;1.23;1.23;;;;;;;12.73;100.00;94905.91;5134496;27;20434;-60
2023/04/18 09:54:40;;;;;;;0.40;0.40;;;;;;;12.44;100.00;94893.91;5133920;27;20477;-60
2023/04/18 09:57:12;;;;;;;1.07;0.40;;;;;;;12.59;100.00;94902.44;5133822;27;20518;-60
2023/04/18 09:59:47;;;;;;;1.80;0.30;;;;;;;12.26;100.00;94849.56;5133994;27;20471;-60
2023/04/18 10:02:20;;;;;;;0.40;0.40;;;;;;;12.61;100.00;94905.59;5133912;27;20438;-59
2023/04/18 10:04:51;;;;;;;0.63;0.57;;;;;;;12.62;100.00;94901.06;5134154;27;20458;-60
2023/04/18 10:07:20;;;;;;;0.60;0.47;;;;;;;13.06;100.00;94896.03;5133899;27;20475;-59
2023/04/18 10:09:51;;;;;;;0.30;0.20;;;;;;;13.17;100.00;94891.31;5133428;27;20933;-59
2023/04/18 10:12:20;;;;;;;0.30;0.30;;;;;;;12.91;100.00;94883.00;5133264;27;20466;-59
2023/04/18 10:14:48;;;;;;;0.40;0.40;;;;;;;12.69;100.00;94894.28;5133220;27;20489;-59
2023/04/18 10:17:17;;;;;;;1.47;1.47;;;;;;;12.38;100.00;94892.41;5133623;27;20503;-59
2023/04/18 10:19:46;;;;;;;0.60;0.60;;;;;;;12.19;100.00;94903.09;5133322;27;20446;-60
2023/04/18 10:22:14;;;;;;;1.47;1.00;;;;;;;12.05;100.00;94905.66;5133518;27;21046;-60
2023/04/18 10:24:47;;;;;;;2.40;2.17;;;;;;;11.64;100.00;94866.69;5133047;27;20532;-61
2023/04/18 10:27:17;;;;;;;0.53;0.53;;;;;;;11.59;100.00;94854.25;5132548;27;20578;-60
2023/04/18 10:29:50;;;;;;;1.77;1.67;;;;;;;11.68;100.00;94915.44;5133095;27;20459;-60
2023/04/18 10:32:19;;;;;;;0.80;0.80;;;;;;;11.54;100.00;94927.81;5132808;27;20541;-60
2023/04/18 10:34:48;;;;;;;0.60;0.60;;;;;;;11.25;100.00;94925.25;5132815;27;20500;-61
2023/04/18 10:37:17;;;;;;;0.40;0.30;;;;;;;11.18;100.00;94928.22;5132369;27;20505;-60
2023/04/18 10:39:56;;;;;;;1.07;1.03;;;;;;;11.23;100.00;94938.03;5132728;27;20446;-60
2023/04/18 10:42:58;;;;;;;0.50;0.50;;;;;;;11.15;100.00;94935.97;5132102;27;20439;-60
2023/04/18 10:45:30;;;;;;;1.57;1.47;;;;;;;10.92;100.00;94915.53;5129597;27;20446;-60
2023/04/18 10:48:23;;;;;;;1.90;1.17;;;;;;;11.08;100.00;94946.13;5132640;27;20553;-60
2023/04/18 10:51:13;;;;;;;1.23;0.80;;;;;;;11.07;100.00;94945.34;5104849;27;20435;-61
2023/04/18 10:53:48;;;;;;;0.50;0.50;;;;;;;10.96;100.00;94951.00;5132516;27;20807;-60
2023/04/18 10:56:16;;;;;;;0.60;0.60;;;;;;;10.95;100.00;94907.81;5132671;27;20526;-61
2023/04/18 10:58:53;;;;;;;2.43;0.60;;;;;;;11.18;100.00;94946.03;5132991;27;20447;-61
2023/04/18 11:01:27;;;;;;;0.40;0.30;;;;;;;11.46;100.00;94943.31;5132870;27;20504;-60
2023/04/18 11:03:59;;;;;;;0.80;0.40;;;;;;;11.67;100.00;94932.44;5132408;27;20434;-61
2023/04/18 11:06:30;;;;;;;0.40;0.30;;;;;;;11.57;100.00;94876.84;5132036;27;20435;-60
2023/04/18 11:09:10;;;;;;;7.00;1.00;;;;;;;12.44;100.00;94926.59;5132413;27;20493;-60
2023/04/18 11:11:39;;;;;;;1.80;0.90;;;;;;;12.60;100.00;94919.94;5131845;27;20495;-60
2023/04/18 11:14:07;;;;;;;0.70;0.60;;;;;;;12.91;100.00;94924.75;5133159;27;20867;-60
2023/04/18 11:16:37;;;;;;;1.07;1.07;;;;;;;12.77;100.00;94920.19;5132026;27;21043;-61
2023/04/18 11:19:29;;;;;;;0.53;0.53;;;;;;;12.33;100.00;94908.44;5132575;27;20439;-61
2023/04/18 11:22:01;;;;;;;0.40;0.30;;;;;;;11.99;100.00;94840.41;5094884;27;20435;-62
2023/04/18 11:24:29;;;;;;;0.40;0.40;;;;;;;12.46;100.00;94908.50;5132123;27;20486;-61
2023/04/18 11:26:58;;;;;;;5.60;1.20;;;;;;;12.32;100.00;94899.66;5132311;27;20442;-61
2023/04/18 11:29:27;;;;;;;0.67;0.67;;;;;;;12.42;100.00;94896.09;5131957;27;20528;-61
2023/04/18 11:31:57;;;;;;;0.60;0.60;;;;;;;12.80;100.00;94900.19;5132640;27;20828;-60
2023/04/18 11:34:30;;;;;;;0.40;0.30;;;;;;;13.10;100.00;94897.06;5132488;27;20427;-60
2023/04/18 11:36:58;;;;;;;4.70;0.43;;;;;;;13.12;100.00;94891.41;5132100;27;20442;-60